Time;durP1;ratioP1;P1;durP2;ratioP2;P2;SDS_P1;SDS_P2;PMS_P1;PMS_P2;Temp;Humidity;BMP_temperature;BMP_pressure;BME280_temperature;BME280_humidity;BME280_pressure;Samples;Min_cycle;Max_cycle;Signal;HPM_P1;HPM_P2
2022/10/02 04:04:17;;;;;;;1.20;1.10;;;13.80;99.90;;;;;;5776082;22;20496;-64
2022/10/02 04:06:50;;;;;;;1.80;1.20;;;13.90;99.90;;;;;;5013178;28;20832;-64
2022/10/02 04:09:30;;;;;;;1.00;0.93;;;13.80;99.90;;;;;;5012725;28;20426;-63
2022/10/02 04:12:07;;;;;;;1.80;1.30;;;13.90;99.90;;;;;;5013406;28;20459;-64
2022/10/02 04:14:36;;;;;;;6.83;1.73;;;13.80;99.90;;;;;;5012821;28;20811;-64
2022/10/02 04:17:12;;;;;;;1.60;1.50;;;13.80;99.90;;;;;;5013252;28;20548;-63
2022/10/02 04:19:49;;;;;;;1.27;1.10;;;13.80;99.90;;;;;;5013311;28;20525;-63
2022/10/02 04:22:37;;;;;;;1.27;1.17;;;13.80;99.90;;;;;;5012598;28;20918;-63
2022/10/02 04:25:11;;;;;;;2.63;0.90;;;13.80;99.90;;;;;;4997036;28;20457;-63
2022/10/02 04:27:39;;;;;;;1.20;1.20;;;13.80;99.90;;;;;;5013889;28;20424;-63
2022/10/02 04:30:09;;;;;;;4.40;1.67;;;13.80;99.90;;;;;;5016953;28;20502;-64
2022/10/02 04:32:35;;;;;;;2.87;1.40;;;13.80;99.90;;;;;;5016362;28;20459;-64
2022/10/02 04:35:16;;;;;;;2.47;1.30;;;13.80;99.90;;;;;;5015258;28;20463;-63
2022/10/02 04:38:01;;;;;;;2.20;1.10;;;13.80;99.90;;;;;;5016783;28;20409;-63
2022/10/02 04:40:49;;;;;;;2.40;1.50;;;13.80;99.90;;;;;;5016659;28;20907;-64
2022/10/02 04:43:38;;;;;;;5.13;1.23;;;13.80;99.90;;;;;;5007920;28;20843;-64
2022/10/02 04:46:26;;;;;;;2.40;1.37;;;13.80;99.90;;;;;;4997098;28;20488;-64
2022/10/02 04:49:10;;;;;;;1.10;1.00;;;13.70;99.90;;;;;;4996679;28;20488;-63
2022/10/02 04:51:58;;;;;;;2.13;1.20;;;13.70;99.90;;;;;;4996673;28;20401;-64
2022/10/02 04:54:44;;;;;;;1.60;1.50;;;13.70;99.90;;;;;;4996316;28;20552;-64
2022/10/02 04:57:26;;;;;;;1.40;1.30;;;13.70;99.90;;;;;;4996839;28;20734;-64
2022/10/02 05:00:17;;;;;;;1.37;1.27;;;13.70;99.90;;;;;;4996551;28;20415;-63
2022/10/02 05:03:13;;;;;;;1.20;1.20;;;13.70;99.90;;;;;;5004365;28;20432;-63
2022/10/02 05:06:34;;;;;;;2.60;1.30;;;13.70;99.90;;;;;;5012420;28;20436;-63
2022/10/02 05:09:26;;;;;;;2.33;1.07;;;13.70;99.90;;;;;;4935954;29;20457;-64
2022/10/02 05:12:17;;;;;;;1.10;1.10;;;13.70;99.90;;;;;;5016071;28;20396;-64
2022/10/02 05:15:31;;;;;;;0.90;0.90;;;13.70;99.90;;;;;;5013870;28;20503;-63
2022/10/02 05:18:30;;;;;;;2.43;1.30;;;13.70;99.90;;;;;;4997981;28;20410;-64
2022/10/02 05:21:16;;;;;;;1.17;1.10;;;13.80;99.90;;;;;;4995956;28;20423;-64
2022/10/02 05:24:20;;;;;;;1.80;1.30;;;13.80;99.90;;;;;;4978017;28;20851;-64
2022/10/02 05:26:57;;;;;;;1.03;0.93;;;13.80;99.90;;;;;;5003874;28;20430;-63
2022/10/02 05:29:28;;;;;;;1.27;1.07;;;13.80;99.90;;;;;;5003062;28;20418;-64
2022/10/02 05:32:24;;;;;;;2.30;1.20;;;13.80;99.90;;;;;;4996191;28;20445;-64
2022/10/02 05:35:05;;;;;;;1.00;1.00;;;13.90;99.90;;;;;;5013379;28;20543;-63
2022/10/02 05:37:41;;;;;;;1.80;1.00;;;13.80;99.90;;;;;;5015585;28;20402;-64
2022/10/02 05:40:46;;;;;;;1.53;1.43;;;13.80;99.90;;;;;;5015165;28;20409;-65
2022/10/02 05:43:41;;;;;;;3.37;1.23;;;13.80;99.90;;;;;;4997787;28;20421;-65
2022/10/02 05:46:20;;;;;;;1.50;1.03;;;13.80;99.90;;;;;;4996696;28;20421;-62
2022/10/02 05:49:11;;;;;;;1.17;1.07;;;13.80;99.90;;;;;;4978447;28;20444;-65
2022/10/02 05:52:03;;;;;;;1.50;1.03;;;13.80;99.90;;;;;;4994983;28;20417;-64
2022/10/02 05:54:56;;;;;;;1.80;1.47;;;13.80;99.90;;;;;;4994657;28;20465;-64
2022/10/02 05:57:31;;;;;;;7.10;1.60;;;13.80;99.90;;;;;;4995231;28;20529;-64
2022/10/02 06:00:27;;;;;;;1.57;1.10;;;13.80;99.90;;;;;;4995373;28;20426;-64
2022/10/02 06:03:04;;;;;;;2.40;1.83;;;13.80;99.90;;;;;;4995799;28;20429;-64
2022/10/02 06:05:57;;;;;;;1.93;1.50;;;13.70;99.90;;;;;;5009044;28;20454;-64
2022/10/02 06:08:41;;;;;;;3.97;1.80;;;13.70;99.90;;;;;;4985484;28;21022;-64
2022/10/02 06:11:14;;;;;;;4.57;1.90;;;13.70;99.90;;;;;;4995243;28;20460;-63
2022/10/02 06:13:45;;;;;;;1.50;1.40;;;13.60;99.90;;;;;;4995031;28;20437;-64
2022/10/02 06:16:37;;;;;;;1.60;1.50;;;13.60;99.90;;;;;;4995121;28;20461;-63
2022/10/02 06:19:14;;;;;;;1.83;1.70;;;13.60;99.90;;;;;;5008304;28;20424;-63
2022/10/02 06:21:47;;;;;;;2.40;2.20;;;13.50;99.90;;;;;;5014747;28;20782;-64
2022/10/02 06:24:23;;;;;;;4.40;2.00;;;13.50;99.90;;;;;;5014226;28;20429;-64
2022/10/02 06:27:02;;;;;;;3.23;2.37;;;13.50;99.90;;;;;;5014862;28;20409;-63
2022/10/02 06:29:40;;;;;;;4.33;1.77;;;13.50;99.90;;;;;;5007410;28;20429;-63
2022/10/02 06:32:24;;;;;;;1.90;1.80;;;13.50;99.90;;;;;;4995049;28;20421;-64
2022/10/02 06:34:50;;;;;;;2.67;2.43;;;13.40;99.90;;;;;;4996956;28;20970;-67
2022/10/02 06:37:48;;;;;;;4.90;2.50;;;13.40;99.90;;;;;;5007068;28;20432;-66
2022/10/02 06:40:36;;;;;;;4.47;1.90;;;13.40;99.90;;;;;;4995499;28;20628;-65
2022/10/02 06:43:15;;;;;;;3.20;2.47;;;13.40;99.90;;;;;;4994137;28;20437;-66
2022/10/02 06:45:59;;;;;;;3.60;1.60;;;13.40;99.90;;;;;;5004139;28;20431;-65
2022/10/02 06:48:39;;;;;;;2.23;1.80;;;13.40;99.90;;;;;;5000684;28;20764;-66
2022/10/02 06:51:23;;;;;;;5.20;2.97;;;13.40;99.90;;;;;;5007000;28;20436;-65
2022/10/02 06:53:55;;;;;;;2.80;1.80;;;13.30;99.90;;;;;;5013216;28;20456;-66
2022/10/02 06:56:52;;;;;;;3.53;2.10;;;13.30;99.90;;;;;;5000628;28;20438;-65
2022/10/02 06:59:20;;;;;;;3.30;1.73;;;13.30;99.90;;;;;;4994536;28;20408;-64
2022/10/02 07:02:16;;;;;;;1.70;1.60;;;13.20;99.90;;;;;;5011043;28;20413;-65
2022/10/02 07:05:02;;;;;;;2.10;1.97;;;13.20;99.90;;;;;;5013277;28;20458;-64
2022/10/02 07:07:40;;;;;;;4.57;2.13;;;13.20;99.90;;;;;;5012518;28;20423;-66
2022/10/02 07:10:31;;;;;;;4.30;3.37;;;13.20;99.90;;;;;;5011744;28;20395;-65
2022/10/02 07:12:57;;;;;;;10.13;3.50;;;13.20;99.90;;;;;;4993811;28;20812;-65
2022/10/02 07:15:47;;;;;;;4.97;3.10;;;13.10;99.90;;;;;;4994232;28;20550;-65
2022/10/02 07:18:34;;;;;;;3.30;2.40;;;13.10;99.90;;;;;;4993956;28;20185;-66
2022/10/02 07:21:33;;;;;;;3.03;2.83;;;13.10;99.90;;;;;;4994276;28;20408;-66
2022/10/02 07:24:13;;;;;;;4.27;3.43;;;13.10;99.90;;;;;;4993459;28;20459;-65
2022/10/02 07:26:47;;;;;;;3.53;2.33;;;13.10;99.90;;;;;;5005045;28;20845;-67
2022/10/02 07:29:18;;;;;;;3.43;2.83;;;13.10;99.90;;;;;;5007356;28;20493;-65
2022/10/02 07:31:49;;;;;;;4.00;2.90;;;13.10;99.90;;;;;;5003258;28;20425;-65
2022/10/02 07:34:29;;;;;;;3.80;3.43;;;13.20;99.90;;;;;;5007037;28;20535;-66
2022/10/02 07:37:09;;;;;;;2.90;2.70;;;13.20;99.90;;;;;;5005395;28;20471;-66
2022/10/02 07:39:49;;;;;;;3.43;2.47;;;13.20;99.90;;;;;;5005291;28;20420;-66
2022/10/02 07:42:52;;;;;;;2.40;2.20;;;13.20;99.90;;;;;;4994149;28;20415;-67
2022/10/02 07:45:48;;;;;;;2.50;2.30;;;13.20;99.90;;;;;;4976215;28;20458;-66
2022/10/02 07:48:48;;;;;;;3.60;3.20;;;13.20;99.90;;;;;;4991987;28;20824;-66
2022/10/02 07:51:47;;;;;;;5.97;3.70;;;13.20;99.90;;;;;;5013442;28;20492;-66
2022/10/02 07:54:39;;;;;;;2.63;2.37;;;13.20;99.90;;;;;;5011114;28;20448;-67
2022/10/02 07:57:31;;;;;;;3.17;2.83;;;13.20;99.90;;;;;;4994656;28;20423;-67
2022/10/02 08:00:11;;;;;;;4.03;3.20;;;13.20;99.90;;;;;;5017143;28;20437;-68
2022/10/02 08:02:41;;;;;;;3.73;2.47;;;13.20;99.90;;;;;;4997484;28;20420;-67
2022/10/02 08:05:20;;;;;;;4.30;2.57;;;13.20;99.90;;;;;;5007951;28;20460;-68
2022/10/02 08:07:49;;;;;;;3.63;3.00;;;13.20;99.90;;;;;;4999896;28;20456;-69
2022/10/02 08:10:18;;;;;;;4.30;2.60;;;13.20;99.90;;;;;;5016125;28;20455;-68
2022/10/02 08:12:51;;;;;;;3.30;2.70;;;13.20;99.90;;;;;;4998430;28;20508;-69
2022/10/02 08:15:19;;;;;;;2.87;2.67;;;13.20;99.90;;;;;;4997606;28;20497;-68
2022/10/02 08:18:29;;;;;;;3.10;2.80;;;13.30;99.90;;;;;;4997148;28;20451;-69
2022/10/02 08:20:55;;;;;;;2.87;2.43;;;13.30;99.90;;;;;;5009927;28;20428;-68
2022/10/02 08:23:32;;;;;;;2.73;2.53;;;13.30;99.90;;;;;;5005695;28;20421;-69
2022/10/02 08:26:20;;;;;;;3.30;3.03;;;13.30;99.90;;;;;;5010492;28;20435;-69
2022/10/02 08:28:45;;;;;;;5.10;3.50;;;13.30;99.90;;;;;;5010950;28;20977;-68
2022/10/02 08:31:12;;;;;;;2.47;2.27;;;13.30;99.90;;;;;;4997200;28;20413;-66
2022/10/02 08:33:38;;;;;;;5.03;2.63;;;13.50;99.90;;;;;;5003866;28;20216;-72
2022/10/02 08:36:29;;;;;;;10.87;3.63;;;13.60;99.90;;;;;;4997836;28;20493;-66
2022/10/02 08:39:31;;;;;;;10.93;6.90;;;13.70;99.90;;;;;;5002380;28;20420;-67
2022/10/02 08:42:15;;;;;;;3.40;3.07;;;13.80;99.90;;;;;;5016738;28;20404;-69
2022/10/02 08:45:01;;;;;;;5.77;3.23;;;13.80;99.90;;;;;;5004648;28;20491;-69
2022/10/02 08:47:50;;;;;;;5.07;3.10;;;13.90;99.90;;;;;;4983075;28;20432;-68
2022/10/02 08:50:39;;;;;;;6.40;4.97;;;13.90;99.90;;;;;;5001070;28;20425;-68
2022/10/02 08:53:40;;;;;;;2.10;2.00;;;13.80;99.90;;;;;;4996403;28;20458;-67
2022/10/02 08:56:09;;;;;;;2.90;2.60;;;13.80;99.90;;;;;;4999427;28;20467;-67
2022/10/02 08:58:50;;;;;;;3.17;2.90;;;13.90;99.90;;;;;;5015906;28;20415;-68
2022/10/02 09:01:31;;;;;;;2.77;2.60;;;14.00;99.90;;;;;;4996583;28;20442;-67
2022/10/02 09:04:21;;;;;;;3.13;2.60;;;14.00;99.90;;;;;;5001255;28;20441;-67
2022/10/02 09:07:20;;;;;;;3.43;2.87;;;14.00;99.90;;;;;;4996503;28;20433;-68
2022/10/02 09:10:18;;;;;;;7.00;2.77;;;14.00;99.90;;;;;;5007975;28;20425;-68
2022/10/02 09:13:05;;;;;;;3.10;2.90;;;14.10;99.90;;;;;;4995999;28;20749;-68
2022/10/02 09:15:45;;;;;;;4.47;2.10;;;14.20;99.90;;;;;;4998869;28;20539;-67
2022/10/02 09:18:33;;;;;;;3.43;2.80;;;14.20;99.90;;;;;;5015928;28;20488;-66
2022/10/02 09:21:13;;;;;;;2.90;2.70;;;14.30;99.90;;;;;;4999468;28;20422;-67
2022/10/02 09:23:39;;;;;;;3.37;2.27;;;14.50;99.90;;;;;;5002893;28;20445;-68
2022/10/02 09:26:17;;;;;;;3.70;2.33;;;14.60;99.90;;;;;;4995919;28;20430;-67
2022/10/02 09:28:54;;;;;;;2.67;2.00;;;14.70;99.90;;;;;;5006058;28;20197;-66
2022/10/02 09:31:29;;;;;;;2.60;1.53;;;14.70;99.90;;;;;;5015241;28;20410;-65
2022/10/02 09:34:25;;;;;;;3.20;1.90;;;14.70;99.90;;;;;;5003462;28;20450;-66
2022/10/02 09:37:23;;;;;;;2.20;1.70;;;14.70;99.90;;;;;;4996050;28;20472;-65
2022/10/02 09:40:25;;;;;;;2.93;2.63;;;14.50;99.90;;;;;;5009435;28;20767;-64
2022/10/02 09:43:22;;;;;;;3.90;2.40;;;14.40;99.90;;;;;;5012260;28;20945;-66
2022/10/02 09:46:18;;;;;;;2.93;2.10;;;14.40;99.90;;;;;;4996671;28;20416;-66
2022/10/02 09:49:07;;;;;;;6.27;2.37;;;14.30;99.90;;;;;;5004247;28;20425;-67
2022/10/02 09:52:15;;;;;;;5.70;3.13;;;14.30;99.90;;;;;;5014992;28;20402;-65
2022/10/02 09:55:05;;;;;;;4.47;2.33;;;14.30;99.90;;;;;;5013644;28;20869;-65
2022/10/02 09:57:52;;;;;;;2.40;2.20;;;14.30;99.90;;;;;;5014631;28;20499;-66
2022/10/02 10:01:03;;;;;;;1.57;1.30;;;14.20;99.90;;;;;;4977731;28;20429;-64
2022/10/02 10:03:41;;;;;;;3.27;1.77;;;14.20;99.90;;;;;;4980764;28;20439;-65
2022/10/02 10:06:24;;;;;;;3.30;1.80;;;14.10;99.90;;;;;;5003723;28;20437;-69
2022/10/02 10:08:58;;;;;;;2.07;1.90;;;14.10;99.90;;;;;;5001452;28;20422;-64
2022/10/02 10:11:42;;;;;;;2.30;2.17;;;14.00;99.90;;;;;;5005012;28;20470;-63
2022/10/02 10:14:37;;;;;;;1.83;1.60;;;14.00;99.90;;;;;;4996689;28;20427;-64
2022/10/02 10:17:18;;;;;;;2.27;2.10;;;14.00;99.90;;;;;;5000852;28;20459;-67
2022/10/02 10:19:58;;;;;;;3.37;1.47;;;13.90;99.90;;;;;;5013868;28;20821;-67
2022/10/02 10:22:56;;;;;;;1.70;1.60;;;13.90;99.90;;;;;;5004992;28;20426;-70
2022/10/02 10:25:49;;;;;;;4.43;1.60;;;14.00;99.90;;;;;;4972669;28;21039;-69
2022/10/02 10:28:20;;;;;;;1.93;1.83;;;14.00;99.90;;;;;;4997797;28;20441;-65
2022/10/02 10:31:08;;;;;;;2.53;1.80;;;14.10;99.90;;;;;;4999562;28;20420;-65
2022/10/02 10:33:55;;;;;;;1.70;1.33;;;14.20;99.90;;;;;;5004770;28;20512;-64
2022/10/02 10:39:51;;;;;;;2.10;1.60;;;14.40;99.90;;;;;;5011072;28;20429;-64
2022/10/02 10:42:48;;;;;;;1.33;1.10;;;14.50;99.90;;;;;;4994506;28;20398;-64
2022/10/02 10:45:33;;;;;;;1.40;1.30;;;14.60;99.90;;;;;;4979956;28;21018;-64
2022/10/02 10:48:21;;;;;;;1.20;1.10;;;14.60;99.90;;;;;;4996874;28;20418;-63
2022/10/02 10:50:49;;;;;;;1.90;1.20;;;14.50;99.90;;;;;;5008712;28;20431;-63
2022/10/02 10:53:45;;;;;;;1.57;1.47;;;14.50;99.90;;;;;;5013197;28;20402;-63
2022/10/02 10:56:35;;;;;;;1.20;1.10;;;14.50;99.90;;;;;;5011492;28;20445;-64
2022/10/02 10:59:41;;;;;;;1.37;1.10;;;14.40;99.90;;;;;;5008449;28;20425;-63
2022/10/02 11:02:37;;;;;;;1.40;0.90;;;14.40;99.90;;;;;;4998364;28;20436;-63
2022/10/02 11:05:28;;;;;;;1.50;1.40;;;14.30;99.90;;;;;;5012009;28;20456;-64
2022/10/02 11:08:13;;;;;;;1.30;1.30;;;14.40;99.90;;;;;;5012042;28;20408;-62
2022/10/02 11:11:10;;;;;;;2.20;0.90;;;14.30;99.90;;;;;;5010574;28;20423;-63
2022/10/02 11:13:47;;;;;;;1.20;0.77;;;14.30;99.90;;;;;;4975290;28;20454;-63
2022/10/02 11:16:57;;;;;;;1.17;1.07;;;14.30;99.90;;;;;;4992707;28;20485;-64
2022/10/02 11:19:53;;;;;;;0.90;0.90;;;14.30;99.90;;;;;;4992863;28;20493;-63
2022/10/02 11:22:50;;;;;;;1.17;1.13;;;14.30;99.90;;;;;;4992613;28;20762;-63
2022/10/02 11:25:37;;;;;;;0.90;0.87;;;14.30;99.90;;;;;;4950402;28;20430;-62
2022/10/02 11:28:41;;;;;;;1.17;1.07;;;14.20;99.90;;;;;;4994107;28;20417;-63
2022/10/02 11:31:25;;;;;;;1.10;1.00;;;14.30;99.90;;;;;;4993724;28;20410;-64
2022/10/02 11:33:59;;;;;;;0.70;0.70;;;14.30;99.90;;;;;;4993026;28;20437;-63
2022/10/02 11:36:44;;;;;;;0.67;0.60;;;14.30;99.90;;;;;;4993772;28;20452;-63
2022/10/02 11:39:28;;;;;;;0.50;0.50;;;14.30;99.90;;;;;;4994046;28;20403;-63
2022/10/02 11:42:11;;;;;;;0.60;0.60;;;14.30;99.90;;;;;;5008604;28;20420;-63
2022/10/02 11:44:49;;;;;;;0.63;0.63;;;14.40;99.90;;;;;;5013059;28;20422;-63
2022/10/02 11:47:27;;;;;;;0.57;0.57;;;14.60;99.90;;;;;;5013620;28;20812;-63
2022/10/02 11:50:34;;;;;;;0.70;0.70;;;14.70;99.90;;;;;;5013581;28;20405;-62
2022/10/02 11:53:17;;;;;;;0.60;0.60;;;14.90;99.90;;;;;;5013318;28;20429;-63
2022/10/02 11:56:02;;;;;;;0.80;0.80;;;14.90;99.90;;;;;;5005343;28;20450;-63
2022/10/02 11:58:50;;;;;;;1.43;0.77;;;14.90;99.90;;;;;;4976254;28;20415;-63
2022/10/02 12:01:30;;;;;;;0.53;0.53;;;14.80;99.90;;;;;;4994089;28;20449;-63
2022/10/02 12:04:17;;;;;;;0.70;0.70;;;14.80;99.90;;;;;;4993191;28;20426;-63
2022/10/02 12:07:03;;;;;;;0.83;0.83;;;14.90;99.90;;;;;;4995116;28;20532;-62
2022/10/02 12:09:35;;;;;;;0.57;0.57;;;14.90;99.90;;;;;;4996766;28;20411;-62
2022/10/02 12:12:15;;;;;;;0.80;0.80;;;15.00;99.90;;;;;;4997631;28;20404;-62
2022/10/02 12:15:14;;;;;;;0.70;0.70;;;15.00;99.90;;;;;;4995968;28;20611;-62
2022/10/02 12:17:57;;;;;;;0.60;0.60;;;15.00;99.90;;;;;;5012639;28;20434;-62
2022/10/02 12:26:57;;;;;;;0.77;0.77;;;15.00;99.90;;;;;;5013065;28;20963;-62
2022/10/02 12:29:54;;;;;;;0.70;0.70;;;15.00;99.90;;;;;;5013023;28;20429;-61
2022/10/02 12:32:54;;;;;;;1.40;1.30;;;14.90;99.90;;;;;;4995679;28;20422;-62
2022/10/02 12:35:55;;;;;;;0.80;0.80;;;14.80;99.90;;;;;;4993273;28;20532;-62
2022/10/02 12:38:49;;;;;;;1.00;1.00;;;14.90;99.90;;;;;;4977219;28;20414;-62
2022/10/02 12:41:32;;;;;;;1.10;1.00;;;14.80;99.90;;;;;;4974934;28;20518;-63
2022/10/02 12:44:17;;;;;;;1.00;1.00;;;14.60;99.90;;;;;;4994570;28;20830;-62
2022/10/02 12:47:07;;;;;;;1.30;1.20;;;14.60;99.90;;;;;;4997994;28;20414;-64
2022/10/02 12:49:44;;;;;;;0.80;0.80;;;14.50;99.90;;;;;;4996759;28;20388;-64
2022/10/02 12:52:27;;;;;;;1.00;1.00;;;14.50;99.90;;;;;;4996801;28;20409;-64
2022/10/02 12:55:23;;;;;;;2.27;1.10;;;14.50;99.90;;;;;;4996503;28;20466;-63
2022/10/02 12:58:00;;;;;;;1.30;1.20;;;14.40;99.90;;;;;;4996791;28;20406;-64
2022/10/02 13:00:51;;;;;;;1.50;1.40;;;14.40;99.90;;;;;;5001973;28;20818;-64
2022/10/02 13:03:38;;;;;;;1.37;1.27;;;14.30;99.90;;;;;;5015633;28;20516;-63
2022/10/02 13:06:39;;;;;;;1.17;1.17;;;14.30;99.90;;;;;;5016038;28;20428;-64
2022/10/02 13:09:19;;;;;;;1.43;1.33;;;14.30;99.90;;;;;;5016162;28;20426;-64
2022/10/02 13:12:03;;;;;;;1.70;1.60;;;14.40;99.90;;;;;;5015960;28;20404;-64
2022/10/02 13:15:05;;;;;;;1.23;1.13;;;14.40;99.90;;;;;;5015010;28;20468;-63
2022/10/02 13:18:19;;;;;;;0.87;0.83;;;14.40;99.90;;;;;;4996648;28;20412;-64
2022/10/02 13:21:04;;;;;;;1.03;1.00;;;14.30;99.90;;;;;;4936636;28;20465;-64
2022/10/02 13:24:13;;;;;;;1.60;1.50;;;14.30;99.90;;;;;;4995619;28;20426;-64
2022/10/02 13:26:56;;;;;;;0.80;0.80;;;14.30;99.90;;;;;;4996122;28;20421;-64
2022/10/02 13:29:46;;;;;;;0.80;0.63;;;14.30;99.90;;;;;;4996743;28;20970;-64
2022/10/02 13:32:27;;;;;;;1.80;1.43;;;14.30;99.90;;;;;;5015753;28;20792;-64
2022/10/02 13:35:18;;;;;;;1.37;0.80;;;14.20;99.90;;;;;;5015460;28;20826;-63
2022/10/02 13:38:02;;;;;;;1.13;1.13;;;14.20;99.90;;;;;;5015576;28;20494;-63
2022/10/02 13:40:31;;;;;;;1.23;1.23;;;14.10;99.90;;;;;;5015421;28;20413;-63
2022/10/02 13:43:25;;;;;;;1.30;1.00;;;14.10;99.90;;;;;;5015113;28;20436;-63
2022/10/02 13:46:09;;;;;;;1.63;1.53;;;14.10;99.90;;;;;;4999983;28;20437;-63
2022/10/02 13:48:59;;;;;;;1.10;1.00;;;14.20;99.90;;;;;;4995856;28;20483;-64
2022/10/02 13:51:38;;;;;;;0.80;0.80;;;14.10;99.90;;;;;;4995593;28;20497;-64
2022/10/02 13:54:30;;;;;;;1.20;1.20;;;14.10;99.90;;;;;;4995038;28;20432;-64
2022/10/02 13:57:13;;;;;;;1.03;1.03;;;14.10;99.90;;;;;;4995093;28;20407;-65
2022/10/02 13:59:53;;;;;;;1.07;0.97;;;14.10;99.90;;;;;;4995922;28;20458;-64
2022/10/02 14:02:29;;;;;;;0.73;0.70;;;14.10;99.90;;;;;;4994856;28;20900;-64
2022/10/02 14:05:26;;;;;;;1.07;0.97;;;14.20;99.90;;;;;;4995098;28;20453;-64
2022/10/02 14:07:51;;;;;;;0.80;0.80;;;14.30;99.90;;;;;;4994924;28;20441;-63
2022/10/02 14:10:41;;;;;;;4.23;1.10;;;14.40;99.90;;;;;;4995262;28;20430;-64
2022/10/02 14:13:27;;;;;;;0.87;0.87;;;14.60;99.90;;;;;;4977307;28;20662;-64
2022/10/02 14:16:09;;;;;;;0.60;0.60;;;14.60;99.90;;;;;;5013892;28;20532;-64
2022/10/02 14:18:50;;;;;;;0.60;0.60;;;14.60;99.90;;;;;;5014587;28;20410;-64
2022/10/02 14:21:35;;;;;;;0.70;0.70;;;14.50;99.90;;;;;;5014576;28;20755;-64
2022/10/02 14:24:17;;;;;;;0.53;0.53;;;14.50;99.90;;;;;;5013868;28;20790;-64
2022/10/02 14:27:11;;;;;;;0.50;0.50;;;14.50;99.90;;;;;;5014740;28;20408;-64
2022/10/02 14:30:14;;;;;;;0.70;0.63;;;14.40;99.90;;;;;;5003265;28;20508;-64
2022/10/02 14:32:53;;;;;;;0.70;0.70;;;14.40;99.90;;;;;;4994398;28;20438;-64
2022/10/02 14:35:37;;;;;;;0.60;0.60;;;14.40;99.90;;;;;;4994379;28;20465;-64
2022/10/02 14:38:30;;;;;;;0.80;0.80;;;14.40;99.90;;;;;;4994482;28;20413;-63
2022/10/02 14:41:00;;;;;;;0.80;0.80;;;14.50;99.90;;;;;;4994658;28;20437;-63
2022/10/02 14:43:35;;;;;;;0.90;0.90;;;14.40;99.90;;;;;;4997215;28;20428;-64
2022/10/02 14:46:24;;;;;;;1.07;0.97;;;14.50;99.90;;;;;;5014186;28;20408;-64
2022/10/02 14:48:50;;;;;;;0.77;0.77;;;14.40;99.90;;;;;;5014330;28;20413;-63
2022/10/02 14:51:46;;;;;;;0.90;0.90;;;14.40;99.90;;;;;;5013952;28;20425;-64
2022/10/02 14:54:23;;;;;;;0.53;0.53;;;14.50;99.90;;;;;;5013419;28;20429;-63
2022/10/02 14:57:26;;;;;;;0.90;0.90;;;14.50;99.90;;;;;;5014143;28;20402;-63
2022/10/02 15:00:13;;;;;;;0.80;0.80;;;14.50;99.90;;;;;;4996378;28;20425;-64
2022/10/02 15:02:53;;;;;;;5.90;0.73;;;14.50;99.90;;;;;;5004041;28;20421;-64
2022/10/02 15:05:36;;;;;;;0.60;0.60;;;14.50;99.90;;;;;;5013588;28;20445;-63
2022/10/02 15:08:14;;;;;;;0.50;0.50;;;14.40;99.90;;;;;;5013520;28;20856;-63
2022/10/02 15:10:41;;;;;;;0.60;0.60;;;14.40;99.90;;;;;;5013934;28;20417;-63
2022/10/02 15:13:06;;;;;;;0.60;0.60;;;14.30;99.90;;;;;;5012933;28;20473;-64
2022/10/02 15:19:15;;;;;;;1.67;0.93;;;14.10;99.90;;;;;;4993679;28;20694;-66
2022/10/02 15:21:57;;;;;;;2.83;2.50;;;14.00;99.90;;;;;;4993913;28;20506;-68
2022/10/02 15:24:28;;;;;;;1.00;0.90;;;13.90;99.90;;;;;;4993303;28;20457;-67
2022/10/02 15:27:09;;;;;;;0.70;0.70;;;13.80;99.90;;;;;;4993528;28;20405;-68
2022/10/02 15:30:05;;;;;;;0.80;0.80;;;13.80;99.90;;;;;;4996425;28;20453;-66
2022/10/02 15:32:40;;;;;;;0.97;0.70;;;13.80;99.90;;;;;;5012905;28;20409;-67
2022/10/02 15:35:24;;;;;;;0.40;0.40;;;13.80;99.90;;;;;;5012981;28;20595;-66
2022/10/02 15:38:22;;;;;;;0.70;0.70;;;13.80;99.90;;;;;;5013448;28;20766;-66
2022/10/02 15:40:59;;;;;;;0.73;0.73;;;13.80;99.90;;;;;;5009110;28;20922;-66
2022/10/02 15:43:39;;;;;;;1.47;1.37;;;13.80;99.90;;;;;;5012289;28;20424;-71
2022/10/02 15:46:30;;;;;;;1.60;1.50;;;13.70;99.90;;;;;;5012981;28;20401;-69
2022/10/02 15:49:03;;;;;;;6.43;4.27;;;13.70;99.90;;;;;;5013058;28;20964;-69
2022/10/02 15:51:28;;;;;;;1.87;1.77;;;13.70;99.90;;;;;;5008103;28;20422;-70
2022/10/02 15:54:20;;;;;;;1.10;1.10;;;13.70;99.90;;;;;;4993088;28;20479;-70
2022/10/02 15:57:08;;;;;;;1.37;1.30;;;13.70;99.90;;;;;;4994037;28;20183;-70
2022/10/02 15:59:39;;;;;;;2.33;1.27;;;13.70;99.90;;;;;;4999668;28;20485;-74
2022/10/02 16:02:05;;;;;;;1.33;1.00;;;13.60;99.90;;;;;;4993945;28;20425;-70
2022/10/02 16:05:01;;;;;;;1.50;1.40;;;13.60;99.90;;;;;;4993366;28;20421;-72
2022/10/02 16:07:45;;;;;;;1.80;1.40;;;13.60;99.90;;;;;;4993370;28;20260;-70
2022/10/02 16:10:47;;;;;;;6.00;4.10;;;13.50;99.90;;;;;;4998598;28;20774;-70
2022/10/02 16:13:24;;;;;;;2.07;1.83;;;13.50;99.90;;;;;;4978071;28;20449;-72
2022/10/02 16:15:59;;;;;;;1.63;1.53;;;13.50;99.90;;;;;;5007552;28;20837;-73
2022/10/02 16:18:50;;;;;;;2.30;1.50;;;13.60;99.90;;;;;;5013929;28;20415;-75
2022/10/02 16:21:48;;;;;;;2.50;2.30;;;13.60;99.90;;;;;;5004152;28;20409;-73
2022/10/02 16:24:43;;;;;;;1.73;1.60;;;13.60;99.90;;;;;;4977077;28;20539;-72
2022/10/02 16:27:46;;;;;;;2.30;2.10;;;13.50;99.90;;;;;;4997052;28;20409;-73
2022/10/02 16:30:18;;;;;;;3.13;2.53;;;13.60;99.90;;;;;;5010274;28;20416;-74
2022/10/02 16:33:12;;;;;;;3.03;2.20;;;13.60;99.90;;;;;;4998022;28;20429;-72
2022/10/02 16:35:54;;;;;;;1.90;1.80;;;13.60;99.90;;;;;;5012773;28;20949;-76
2022/10/02 16:39:01;;;;;;;3.27;1.70;;;13.60;99.90;;;;;;4996793;28;20429;-68
2022/10/02 16:41:48;;;;;;;5.47;3.03;;;13.50;99.90;;;;;;4983811;28;20425;-69
2022/10/02 16:44:57;;;;;;;3.63;2.40;;;13.50;99.90;;;;;;5015904;28;20419;-71
2022/10/02 16:47:34;;;;;;;4.73;2.10;;;13.50;99.90;;;;;;5004637;28;20432;-68
2022/10/02 16:50:18;;;;;;;2.40;1.80;;;13.40;99.90;;;;;;4996839;28;20383;-71
2022/10/02 16:52:56;;;;;;;2.67;1.63;;;13.40;99.90;;;;;;5000864;28;20416;-70
2022/10/02 16:55:43;;;;;;;1.57;1.47;;;13.40;99.90;;;;;;4998669;28;20495;-69
2022/10/02 16:58:49;;;;;;;2.20;2.07;;;13.40;99.90;;;;;;4998627;28;20425;-71
2022/10/02 17:01:39;;;;;;;2.17;1.67;;;13.40;99.90;;;;;;4997686;28;20742;-71
2022/10/02 17:04:23;;;;;;;5.00;2.20;;;13.40;99.90;;;;;;5015648;28;20813;-70
2022/10/02 17:06:58;;;;;;;2.17;1.97;;;13.30;99.90;;;;;;5015370;28;20428;-70
2022/10/02 17:09:42;;;;;;;5.53;2.10;;;13.30;99.90;;;;;;5016215;28;20772;-69
2022/10/02 17:12:33;;;;;;;1.50;1.40;;;13.30;99.90;;;;;;5007201;28;20420;-70
2022/10/02 17:15:21;;;;;;;1.73;1.63;;;13.30;99.90;;;;;;5019932;28;20548;-71
2022/10/02 17:18:02;;;;;;;2.30;2.10;;;13.30;99.90;;;;;;5022427;28;20485;-69
2022/10/02 17:20:32;;;;;;;4.10;2.10;;;13.30;99.90;;;;;;5025267;28;20441;-70
2022/10/02 17:23:15;;;;;;;2.70;2.30;;;13.30;99.90;;;;;;5009340;28;20434;-68
2022/10/02 17:26:04;;;;;;;1.80;1.70;;;13.30;99.90;;;;;;5009421;28;20417;-67
2022/10/02 17:28:42;;;;;;;2.03;1.90;;;13.30;99.90;;;;;;5017123;28;20425;-67
2022/10/02 17:31:34;;;;;;;2.63;2.27;;;13.30;99.90;;;;;;5009477;28;20460;-67
2022/10/02 17:34:18;;;;;;;2.83;2.40;;;13.20;99.90;;;;;;5021596;28;20478;-69
2022/10/02 17:37:10;;;;;;;1.60;1.50;;;13.20;99.90;;;;;;5012750;28;20710;-67
2022/10/02 17:39:57;;;;;;;2.33;1.90;;;13.20;99.90;;;;;;5010800;28;20530;-69
2022/10/02 17:42:47;;;;;;;2.10;1.93;;;13.20;99.90;;;;;;5021923;28;20510;-67
2022/10/02 17:45:35;;;;;;;5.87;2.50;;;13.20;99.90;;;;;;5018016;28;20445;-70
2022/10/02 17:48:29;;;;;;;4.03;2.80;;;13.20;99.90;;;;;;5015706;28;20450;-69
2022/10/02 17:51:28;;;;;;;3.20;2.60;;;13.20;99.90;;;;;;4998633;28;20650;-69
2022/10/02 17:56:49;;;;;;;3.30;2.90;;;13.30;99.90;;;;;;5028564;28;20431;-71
2022/10/02 17:59:44;;;;;;;3.10;2.90;;;13.30;99.90;;;;;;5008340;28;20448;-69
2022/10/02 18:02:13;;;;;;;3.80;3.10;;;13.30;99.90;;;;;;5025829;28;20508;-68
2022/10/02 18:05:10;;;;;;;2.60;2.40;;;13.30;99.90;;;;;;5025578;28;20469;-70
2022/10/02 18:08:06;;;;;;;3.10;2.90;;;13.30;99.90;;;;;;5027876;28;20486;-67
2022/10/02 18:10:53;;;;;;;2.83;2.63;;;13.30;99.90;;;;;;5009551;28;20440;-67
2022/10/02 18:13:32;;;;;;;4.60;2.87;;;13.20;99.90;;;;;;5007988;28;20668;-67
2022/10/02 18:16:00;;;;;;;2.87;2.67;;;13.20;99.90;;;;;;5009240;28;20705;-69
2022/10/02 18:18:41;;;;;;;2.17;2.07;;;13.20;99.90;;;;;;5008861;28;20447;-69
2022/10/02 18:21:33;;;;;;;3.00;2.70;;;13.20;99.90;;;;;;5009581;28;20430;-66
2022/10/02 18:24:30;;;;;;;2.20;2.07;;;13.20;99.90;;;;;;5016106;28;20542;-69
2022/10/02 18:27:29;;;;;;;3.37;3.07;;;13.20;99.90;;;;;;5007930;28;20418;-69
2022/10/02 18:30:14;;;;;;;2.07;1.73;;;13.20;99.90;;;;;;5007603;28;20600;-66
2022/10/02 18:33:01;;;;;;;2.30;2.10;;;13.20;99.90;;;;;;5007070;28;20428;-66
2022/10/02 18:35:48;;;;;;;4.90;2.43;;;13.10;99.90;;;;;;5027111;28;20491;-66
2022/10/02 18:38:29;;;;;;;2.47;1.97;;;13.10;99.90;;;;;;5024479;28;20530;-65